sensor_id;sensor_type;location;lat;lon;timestamp;temperature;humidity
48806;DHT22;34625;47.176;27.548;2023-02-15T00:01:40;21.70;61.20
48806;DHT22;34625;47.176;27.548;2023-02-15T00:04:07;21.60;61.30
48806;DHT22;34625;47.176;27.548;2023-02-15T00:06:33;21.60;61.20
48806;DHT22;34625;47.176;27.548;2023-02-15T00:08:59;21.60;60.80
48806;DHT22;34625;47.176;27.548;2023-02-15T00:11:26;21.50;60.90
48806;DHT22;34625;47.176;27.548;2023-02-15T00:14:22;21.60;60.80
48806;DHT22;34625;47.176;27.548;2023-02-15T00:16:50;21.40;60.80
48806;DHT22;34625;47.176;27.548;2023-02-15T00:19:18;21.70;60.50
48806;DHT22;34625;47.176;27.548;2023-02-15T00:21:45;21.60;61.00
48806;DHT22;34625;47.176;27.548;2023-02-15T00:24:14;21.60;61.00
48806;DHT22;34625;47.176;27.548;2023-02-15T00:26:41;21.60;60.80
48806;DHT22;34625;47.176;27.548;2023-02-15T00:29:08;21.60;60.80
48806;DHT22;34625;47.176;27.548;2023-02-15T00:31:35;21.70;60.80
48806;DHT22;34625;47.176;27.548;2023-02-15T00:34:13;21.70;60.80
48806;DHT22;34625;47.176;27.548;2023-02-15T00:36:39;21.70;60.80
48806;DHT22;34625;47.176;27.548;2023-02-15T00:39:06;21.80;60.70
48806;DHT22;34625;47.176;27.548;2023-02-15T00:41:32;21.70;60.70
48806;DHT22;34625;47.176;27.548;2023-02-15T00:43:59;21.80;60.70
48806;DHT22;34625;47.176;27.548;2023-02-15T00:46:25;21.70;60.60
48806;DHT22;34625;47.176;27.548;2023-02-15T00:48:51;21.70;60.80
48806;DHT22;34625;47.176;27.548;2023-02-15T00:51:17;21.80;60.50
48806;DHT22;34625;47.176;27.548;2023-02-15T00:53:43;21.80;60.20
48806;DHT22;34625;47.176;27.548;2023-02-15T00:56:10;21.90;60.30
48806;DHT22;34625;47.176;27.548;2023-02-15T00:58:36;22.00;60.00
48806;DHT22;34625;47.176;27.548;2023-02-15T01:01:08;22.00;60.20
48806;DHT22;34625;47.176;27.548;2023-02-15T01:03:35;22.00;60.00
48806;DHT22;34625;47.176;27.548;2023-02-15T01:06:03;21.90;59.70
48806;DHT22;34625;47.176;27.548;2023-02-15T01:08:29;21.90;59.00
48806;DHT22;34625;47.176;27.548;2023-02-15T01:10:55;22.10;60.00
48806;DHT22;34625;47.176;27.548;2023-02-15T01:13:22;22.10;59.90
48806;DHT22;34625;47.176;27.548;2023-02-15T01:15:55;22.10;59.60
48806;DHT22;34625;47.176;27.548;2023-02-15T01:18:21;22.10;59.40
48806;DHT22;34625;47.176;27.548;2023-02-15T01:20:48;22.30;59.60
48806;DHT22;34625;47.176;27.548;2023-02-15T01:23:15;22.10;58.60
48806;DHT22;34625;47.176;27.548;2023-02-15T01:25:41;22.20;59.60
48806;DHT22;34625;47.176;27.548;2023-02-15T01:28:07;22.30;59.70
48806;DHT22;34625;47.176;27.548;2023-02-15T01:30:33;22.20;59.60
48806;DHT22;34625;47.176;27.548;2023-02-15T01:32:59;22.30;59.10
48806;DHT22;34625;47.176;27.548;2023-02-15T01:35:30;22.20;59.50
48806;DHT22;34625;47.176;27.548;2023-02-15T01:37:56;22.10;58.90
48806;DHT22;34625;47.176;27.548;2023-02-15T01:40:23;22.20;59.40
48806;DHT22;34625;47.176;27.548;2023-02-15T01:42:54;22.10;59.30
48806;DHT22;34625;47.176;27.548;2023-02-15T01:45:27;22.20;59.30
48806;DHT22;34625;47.176;27.548;2023-02-15T01:50:44;22.20;59.10
48806;DHT22;34625;47.176;27.548;2023-02-15T01:56:27;22.30;59.10
48806;DHT22;34625;47.176;27.548;2023-02-15T01:58:55;22.20;59.50
48806;DHT22;34625;47.176;27.548;2023-02-15T02:01:24;22.20;59.20
48806;DHT22;34625;47.176;27.548;2023-02-15T02:04:25;22.20;59.10
48806;DHT22;34625;47.176;27.548;2023-02-15T02:06:57;22.00;58.90
48806;DHT22;34625;47.176;27.548;2023-02-15T02:09:24;22.00;57.40
48806;DHT22;34625;47.176;27.548;2023-02-15T02:11:51;22.10;59.10
48806;DHT22;34625;47.176;27.548;2023-02-15T02:14:20;22.00;58.90
48806;DHT22;34625;47.176;27.548;2023-02-15T02:16:54;22.00;59.20
48806;DHT22;34625;47.176;27.548;2023-02-15T02:25:18;21.90;59.30
48806;DHT22;34625;47.176;27.548;2023-02-15T02:33:06;21.80;59.20
48806;DHT22;34625;47.176;27.548;2023-02-15T02:35:37;21.80;59.40
48806;DHT22;34625;47.176;27.548;2023-02-15T02:41:16;21.90;59.20
48806;DHT22;34625;47.176;27.548;2023-02-15T02:46:28;21.80;59.00
48806;DHT22;34625;47.176;27.548;2023-02-15T02:48:56;22.00;58.70
48806;DHT22;34625;47.176;27.548;2023-02-15T02:51:22;21.90;59.20
48806;DHT22;34625;47.176;27.548;2023-02-15T02:53:55;21.90;58.80
48806;DHT22;34625;47.176;27.548;2023-02-15T02:59:27;21.90;58.60
48806;DHT22;34625;47.176;27.548;2023-02-15T03:02:13;22.00;58.70
48806;DHT22;34625;47.176;27.548;2023-02-15T03:04:46;22.00;58.70
48806;DHT22;34625;47.176;27.548;2023-02-15T03:07:19;22.10;58.60
48806;DHT22;34625;47.176;27.548;2023-02-15T03:09:54;21.90;58.50
48806;DHT22;34625;47.176;27.548;2023-02-15T03:12:27;22.00;58.40
48806;DHT22;34625;47.176;27.548;2023-02-15T03:17:33;21.90;58.40
48806;DHT22;34625;47.176;27.548;2023-02-15T03:22:59;21.80;58.30
48806;DHT22;34625;47.176;27.548;2023-02-15T03:25:36;21.80;58.30
48806;DHT22;34625;47.176;27.548;2023-02-15T03:28:08;21.80;58.30
48806;DHT22;34625;47.176;27.548;2023-02-15T03:30:36;21.70;58.40
48806;DHT22;34625;47.176;27.548;2023-02-15T03:33:04;21.70;58.30
48806;DHT22;34625;47.176;27.548;2023-02-15T03:35:44;21.60;58.30
48806;DHT22;34625;47.176;27.548;2023-02-15T03:38:17;21.60;58.40
48806;DHT22;34625;47.176;27.548;2023-02-15T03:40:47;21.60;58.30
48806;DHT22;34625;47.176;27.548;2023-02-15T03:51:32;21.50;58.30
48806;DHT22;34625;47.176;27.548;2023-02-15T03:54:11;21.60;58.30
48806;DHT22;34625;47.176;27.548;2023-02-15T03:56:40;21.60;58.20
48806;DHT22;34625;47.176;27.548;2023-02-15T03:59:07;21.60;58.30
48806;DHT22;34625;47.176;27.548;2023-02-15T04:02:21;21.60;58.20
48806;DHT22;34625;47.176;27.548;2023-02-15T04:04:49;21.50;58.40
48806;DHT22;34625;47.176;27.548;2023-02-15T04:07:15;21.50;58.30
48806;DHT22;34625;47.176;27.548;2023-02-15T04:09:41;21.50;58.40
48806;DHT22;34625;47.176;27.548;2023-02-15T04:12:26;21.40;58.10
48806;DHT22;34625;47.176;27.548;2023-02-15T04:14:52;21.50;58.10
48806;DHT22;34625;47.176;27.548;2023-02-15T04:17:37;21.70;58.30
48806;DHT22;34625;47.176;27.548;2023-02-15T04:20:04;21.60;57.80
48806;DHT22;34625;47.176;27.548;2023-02-15T04:22:48;21.50;58.00
48806;DHT22;34625;47.176;27.548;2023-02-15T04:25:33;21.50;58.00
48806;DHT22;34625;47.176;27.548;2023-02-15T04:27:59;21.40;58.00
48806;DHT22;34625;47.176;27.548;2023-02-15T04:30:25;21.40;58.10
48806;DHT22;34625;47.176;27.548;2023-02-15T04:32:53;21.30;58.20
48806;DHT22;34625;47.176;27.548;2023-02-15T04:35:19;21.50;58.20
48806;DHT22;34625;47.176;27.548;2023-02-15T04:37:45;21.50;57.90
48806;DHT22;34625;47.176;27.548;2023-02-15T04:40:16;21.40;57.50
48806;DHT22;34625;47.176;27.548;2023-02-15T04:42:42;21.60;57.60
48806;DHT22;34625;47.176;27.548;2023-02-15T04:45:08;21.50;57.60
48806;DHT22;34625;47.176;27.548;2023-02-15T04:47:34;21.40;57.50
48806;DHT22;34625;47.176;27.548;2023-02-15T04:50:00;21.60;57.60
48806;DHT22;34625;47.176;27.548;2023-02-15T04:52:26;21.60;57.60
48806;DHT22;34625;47.176;27.548;2023-02-15T04:54:52;21.50;57.60
48806;DHT22;34625;47.176;27.548;2023-02-15T04:57:18;21.40;57.70
48806;DHT22;34625;47.176;27.548;2023-02-15T04:59:44;21.40;58.00
48806;DHT22;34625;47.176;27.548;2023-02-15T05:02:10;21.40;58.00
48806;DHT22;34625;47.176;27.548;2023-02-15T05:04:36;21.30;57.90
48806;DHT22;34625;47.176;27.548;2023-02-15T05:07:02;21.50;57.60
48806;DHT22;34625;47.176;27.548;2023-02-15T05:09:28;21.50;57.80
48806;DHT22;34625;47.176;27.548;2023-02-15T05:11:54;21.40;57.50
48806;DHT22;34625;47.176;27.548;2023-02-15T05:14:20;21.40;58.00
48806;DHT22;34625;47.176;27.548;2023-02-15T05:16:46;21.40;57.50
48806;DHT22;34625;47.176;27.548;2023-02-15T05:19:12;21.40;57.60
48806;DHT22;34625;47.176;27.548;2023-02-15T05:21:38;21.40;57.70
48806;DHT22;34625;47.176;27.548;2023-02-15T05:24:04;21.30;57.60
48806;DHT22;34625;47.176;27.548;2023-02-15T05:26:50;21.40;57.60
48806;DHT22;34625;47.176;27.548;2023-02-15T05:29:34;21.30;57.60
48806;DHT22;34625;47.176;27.548;2023-02-15T05:32:00;21.30;57.30
48806;DHT22;34625;47.176;27.548;2023-02-15T05:34:27;21.30;57.10
48806;DHT22;34625;47.176;27.548;2023-02-15T05:36:53;21.30;57.40
48806;DHT22;34625;47.176;27.548;2023-02-15T05:39:19;21.20;57.30
48806;DHT22;34625;47.176;27.548;2023-02-15T05:41:45;21.20;57.50
48806;DHT22;34625;47.176;27.548;2023-02-15T05:44:11;21.20;57.50
48806;DHT22;34625;47.176;27.548;2023-02-15T05:46:37;21.20;57.40
48806;DHT22;34625;47.176;27.548;2023-02-15T05:49:03;21.10;57.60
48806;DHT22;34625;47.176;27.548;2023-02-15T05:51:29;21.10;57.30
48806;DHT22;34625;47.176;27.548;2023-02-15T05:53:55;21.20;57.50
48806;DHT22;34625;47.176;27.548;2023-02-15T05:56:21;21.10;57.60
48806;DHT22;34625;47.176;27.548;2023-02-15T05:58:47;21.10;57.40
48806;DHT22;34625;47.176;27.548;2023-02-15T06:01:18;21.10;57.30
48806;DHT22;34625;47.176;27.548;2023-02-15T06:03:45;21.30;57.20
48806;DHT22;34625;47.176;27.548;2023-02-15T06:06:11;21.30;57.00
48806;DHT22;34625;47.176;27.548;2023-02-15T06:08:38;21.30;56.60
48806;DHT22;34625;47.176;27.548;2023-02-15T06:11:05;21.30;56.80
48806;DHT22;34625;47.176;27.548;2023-02-15T06:13:31;21.30;57.00
48806;DHT22;34625;47.176;27.548;2023-02-15T06:15:57;21.40;56.80
48806;DHT22;34625;47.176;27.548;2023-02-15T06:18:23;21.40;56.30
48806;DHT22;34625;47.176;27.548;2023-02-15T06:20:49;21.40;56.70
48806;DHT22;34625;47.176;27.548;2023-02-15T06:23:16;21.40;56.20
48806;DHT22;34625;47.176;27.548;2023-02-15T06:25:42;21.40;56.40
48806;DHT22;34625;47.176;27.548;2023-02-15T06:28:09;21.50;56.40
48806;DHT22;34625;47.176;27.548;2023-02-15T06:30:35;21.80;57.10
48806;DHT22;34625;47.176;27.548;2023-02-15T06:33:01;21.90;51.20
48806;DHT22;34625;47.176;27.548;2023-02-15T06:35:27;22.00;49.50
48806;DHT22;34625;47.176;27.548;2023-02-15T06:37:53;22.00;48.00
48806;DHT22;34625;47.176;27.548;2023-02-15T06:40:19;22.10;45.70
48806;DHT22;34625;47.176;27.548;2023-02-15T06:42:45;22.10;48.90
48806;DHT22;34625;47.176;27.548;2023-02-15T06:45:12;22.20;46.70
48806;DHT22;34625;47.176;27.548;2023-02-15T06:47:38;22.30;58.80
48806;DHT22;34625;47.176;27.548;2023-02-15T06:50:05;22.60;60.70
48806;DHT22;34625;47.176;27.548;2023-02-15T06:52:31;22.70;59.80
48806;DHT22;34625;47.176;27.548;2023-02-15T06:54:57;22.80;59.10
48806;DHT22;34625;47.176;27.548;2023-02-15T06:57:23;22.80;58.20
48806;DHT22;34625;47.176;27.548;2023-02-15T06:59:49;22.90;55.90
48806;DHT22;34625;47.176;27.548;2023-02-15T07:02:15;22.90;48.80
48806;DHT22;34625;47.176;27.548;2023-02-15T07:04:41;22.80;49.90
48806;DHT22;34625;47.176;27.548;2023-02-15T07:07:11;22.90;47.80
48806;DHT22;34625;47.176;27.548;2023-02-15T07:09:38;22.80;58.90
48806;DHT22;34625;47.176;27.548;2023-02-15T07:12:05;23.00;59.10
48806;DHT22;34625;47.176;27.548;2023-02-15T07:14:50;23.10;60.70
48806;DHT22;34625;47.176;27.548;2023-02-15T07:17:17;23.10;59.10
48806;DHT22;34625;47.176;27.548;2023-02-15T07:19:43;23.00;59.10
48806;DHT22;34625;47.176;27.548;2023-02-15T07:22:09;23.20;55.70
48806;DHT22;34625;47.176;27.548;2023-02-15T07:24:35;23.10;49.40
48806;DHT22;34625;47.176;27.548;2023-02-15T07:27:01;22.80;40.80
48806;DHT22;34625;47.176;27.548;2023-02-15T07:29:27;22.50;45.50
48806;DHT22;34625;47.176;27.548;2023-02-15T07:31:53;22.30;43.60
48806;DHT22;34625;47.176;27.548;2023-02-15T07:34:19;22.10;52.90
48806;DHT22;34625;47.176;27.548;2023-02-15T07:36:45;22.30;52.70
48806;DHT22;34625;47.176;27.548;2023-02-15T07:39:11;22.40;51.30
48806;DHT22;34625;47.176;27.548;2023-02-15T07:41:37;22.30;53.70
48806;DHT22;34625;47.176;27.548;2023-02-15T07:44:12;22.30;53.90
48806;DHT22;34625;47.176;27.548;2023-02-15T07:46:39;22.30;52.40
48806;DHT22;34625;47.176;27.548;2023-02-15T07:49:05;22.30;53.10
48806;DHT22;34625;47.176;27.548;2023-02-15T07:51:31;22.20;55.90
48806;DHT22;34625;47.176;27.548;2023-02-15T07:53:57;22.20;55.00
48806;DHT22;34625;47.176;27.548;2023-02-15T07:56:23;22.20;52.80
48806;DHT22;34625;47.176;27.548;2023-02-15T07:58:49;22.30;48.20
48806;DHT22;34625;47.176;27.548;2023-02-15T08:01:38;22.50;47.30
48806;DHT22;34625;47.176;27.548;2023-02-15T08:04:05;22.80;47.70
48806;DHT22;34625;47.176;27.548;2023-02-15T08:06:34;22.90;47.50
48806;DHT22;34625;47.176;27.548;2023-02-15T08:09:02;23.00;42.20
48806;DHT22;34625;47.176;27.548;2023-02-15T08:11:31;23.20;39.90
48806;DHT22;34625;47.176;27.548;2023-02-15T08:14:21;23.00;40.50
48806;DHT22;34625;47.176;27.548;2023-02-15T08:16:55;23.00;39.90
48806;DHT22;34625;47.176;27.548;2023-02-15T08:19:27;23.10;43.60
48806;DHT22;34625;47.176;27.548;2023-02-15T08:21:59;23.00;44.30
48806;DHT22;34625;47.176;27.548;2023-02-15T08:24:27;23.20;44.70
48806;DHT22;34625;47.176;27.548;2023-02-15T08:26:54;23.30;45.30
48806;DHT22;34625;47.176;27.548;2023-02-15T08:29:22;23.30;43.20
48806;DHT22;34625;47.176;27.548;2023-02-15T08:31:49;23.30;40.10
48806;DHT22;34625;47.176;27.548;2023-02-15T08:34:18;23.40;38.30
48806;DHT22;34625;47.176;27.548;2023-02-15T08:36:44;23.30;39.60
48806;DHT22;34625;47.176;27.548;2023-02-15T08:39:11;23.30;39.60
48806;DHT22;34625;47.176;27.548;2023-02-15T08:41:40;23.40;38.30
48806;DHT22;34625;47.176;27.548;2023-02-15T08:44:08;23.50;36.40
48806;DHT22;34625;47.176;27.548;2023-02-15T08:46:37;23.40;37.50
48806;DHT22;34625;47.176;27.548;2023-02-15T08:49:04;23.40;37.10
48806;DHT22;34625;47.176;27.548;2023-02-15T08:51:33;23.40;38.40
48806;DHT22;34625;47.176;27.548;2023-02-15T08:54:02;23.50;39.30
48806;DHT22;34625;47.176;27.548;2023-02-15T08:56:33;23.50;46.10
48806;DHT22;34625;47.176;27.548;2023-02-15T08:58:59;23.40;51.60
48806;DHT22;34625;47.176;27.548;2023-02-15T09:01:29;23.20;48.80
48806;DHT22;34625;47.176;27.548;2023-02-15T09:04:01;23.00;49.80
48806;DHT22;34625;47.176;27.548;2023-02-15T09:06:28;22.80;48.00
48806;DHT22;34625;47.176;27.548;2023-02-15T09:08:54;22.60;51.60
48806;DHT22;34625;47.176;27.548;2023-02-15T09:11:23;22.60;47.50
48806;DHT22;34625;47.176;27.548;2023-02-15T09:16:20;22.40;52.80
48806;DHT22;34625;47.176;27.548;2023-02-15T09:18:47;22.40;47.50
48806;DHT22;34625;47.176;27.548;2023-02-15T09:21:15;22.40;44.60
48806;DHT22;34625;47.176;27.548;2023-02-15T09:23:43;22.40;52.80
48806;DHT22;34625;47.176;27.548;2023-02-15T09:26:15;22.20;49.20
48806;DHT22;34625;47.176;27.548;2023-02-15T09:28:41;22.20;51.60
48806;DHT22;34625;47.176;27.548;2023-02-15T09:31:14;22.10;53.40
48806;DHT22;34625;47.176;27.548;2023-02-15T09:33:42;22.20;49.00
48806;DHT22;34625;47.176;27.548;2023-02-15T09:38:47;22.20;52.30
48806;DHT22;34625;47.176;27.548;2023-02-15T09:41:24;22.10;53.10
48806;DHT22;34625;47.176;27.548;2023-02-15T09:47:21;22.10;55.50
48806;DHT22;34625;47.176;27.548;2023-02-15T09:56:19;22.10;52.90
48806;DHT22;34625;47.176;27.548;2023-02-15T10:20:43;22.10;54.70
48806;DHT22;34625;47.176;27.548;2023-02-15T10:26:00;22.00;58.30
48806;DHT22;34625;47.176;27.548;2023-02-15T10:28:45;22.00;52.80
48806;DHT22;34625;47.176;27.548;2023-02-15T10:31:28;21.90;58.50
48806;DHT22;34625;47.176;27.548;2023-02-15T10:42:56;21.90;57.20
48806;DHT22;34625;47.176;27.548;2023-02-15T10:51:08;21.80;56.60
48806;DHT22;34625;47.176;27.548;2023-02-15T10:56:30;21.80;58.30
48806;DHT22;34625;47.176;27.548;2023-02-15T11:02:23;21.90;57.60
48806;DHT22;34625;47.176;27.548;2023-02-15T11:04:52;22.00;58.50
48806;DHT22;34625;47.176;27.548;2023-02-15T11:07:35;21.80;57.00
48806;DHT22;34625;47.176;27.548;2023-02-15T11:12:32;21.80;57.30
48806;DHT22;34625;47.176;27.548;2023-02-15T11:17:47;21.80;57.80
48806;DHT22;34625;47.176;27.548;2023-02-15T11:20:31;22.00;58.10
48806;DHT22;34625;47.176;27.548;2023-02-15T11:23:00;22.00;60.60
48806;DHT22;34625;47.176;27.548;2023-02-15T11:25:32;22.30;54.20
48806;DHT22;34625;47.176;27.548;2023-02-15T11:27:58;22.30;58.70
48806;DHT22;34625;47.176;27.548;2023-02-15T11:30:34;22.80;61.30
48806;DHT22;34625;47.176;27.548;2023-02-15T11:33:04;23.20;59.80
48806;DHT22;34625;47.176;27.548;2023-02-15T11:35:47;23.80;58.60
48806;DHT22;34625;47.176;27.548;2023-02-15T11:38:19;24.00;59.50
48806;DHT22;34625;47.176;27.548;2023-02-15T11:40:54;24.30;56.10
48806;DHT22;34625;47.176;27.548;2023-02-15T11:43:37;24.20;56.80
48806;DHT22;34625;47.176;27.548;2023-02-15T11:46:04;24.30;60.40
48806;DHT22;34625;47.176;27.548;2023-02-15T11:48:31;24.20;49.80
48806;DHT22;34625;47.176;27.548;2023-02-15T11:50:58;24.00;45.00
48806;DHT22;34625;47.176;27.548;2023-02-15T11:53:27;24.20;43.90
48806;DHT22;34625;47.176;27.548;2023-02-15T11:55:54;24.00;41.80
48806;DHT22;34625;47.176;27.548;2023-02-15T11:58:44;23.90;42.90
48806;DHT22;34625;47.176;27.548;2023-02-15T12:04:30;23.70;40.30
48806;DHT22;34625;47.176;27.548;2023-02-15T12:07:03;23.60;39.10
48806;DHT22;34625;47.176;27.548;2023-02-15T12:15:11;23.40;42.40
48806;DHT22;34625;47.176;27.548;2023-02-15T12:17:51;23.40;51.40
48806;DHT22;34625;47.176;27.548;2023-02-15T12:23:14;23.40;53.90
48806;DHT22;34625;47.176;27.548;2023-02-15T12:25:51;23.50;54.30
48806;DHT22;34625;47.176;27.548;2023-02-15T12:28:42;23.40;55.80
48806;DHT22;34625;47.176;27.548;2023-02-15T12:33:56;23.30;56.10
48806;DHT22;34625;47.176;27.548;2023-02-15T12:36:31;23.30;55.20
48806;DHT22;34625;47.176;27.548;2023-02-15T12:39:19;23.30;56.50
48806;DHT22;34625;47.176;27.548;2023-02-15T12:41:56;23.20;56.20
48806;DHT22;34625;47.176;27.548;2023-02-15T12:44:34;23.30;55.70
48806;DHT22;34625;47.176;27.548;2023-02-15T12:49:31;23.10;56.20
48806;DHT22;34625;47.176;27.548;2023-02-15T12:52:06;23.00;56.00
48806;DHT22;34625;47.176;27.548;2023-02-15T12:54:41;22.90;54.90
48806;DHT22;34625;47.176;27.548;2023-02-15T12:59:50;22.90;56.40
48806;DHT22;34625;47.176;27.548;2023-02-15T13:02:43;23.00;54.90
48806;DHT22;34625;47.176;27.548;2023-02-15T13:07:50;22.90;54.40
48806;DHT22;34625;47.176;27.548;2023-02-15T13:10:29;22.70;55.20
48806;DHT22;34625;47.176;27.548;2023-02-15T13:12:57;22.90;54.80
48806;DHT22;34625;47.176;27.548;2023-02-15T13:15:41;22.80;53.30
48806;DHT22;34625;47.176;27.548;2023-02-15T13:18:17;22.70;56.50
48806;DHT22;34625;47.176;27.548;2023-02-15T13:20:46;22.60;57.70
48806;DHT22;34625;47.176;27.548;2023-02-15T13:23:42;22.70;56.60
48806;DHT22;34625;47.176;27.548;2023-02-15T13:26:16;22.70;56.60
48806;DHT22;34625;47.176;27.548;2023-02-15T13:28:49;22.60;56.90
48806;DHT22;34625;47.176;27.548;2023-02-15T13:31:23;22.80;54.60
48806;DHT22;34625;47.176;27.548;2023-02-15T13:34:21;22.70;57.70
48806;DHT22;34625;47.176;27.548;2023-02-15T13:39:41;22.80;57.40
48806;DHT22;34625;47.176;27.548;2023-02-15T13:47:35;22.80;57.90
48806;DHT22;34625;47.176;27.548;2023-02-15T14:09:40;22.80;57.20
48806;DHT22;34625;47.176;27.548;2023-02-15T14:12:32;22.80;57.90
48806;DHT22;34625;47.176;27.548;2023-02-15T14:22:50;22.80;58.00
48806;DHT22;34625;47.176;27.548;2023-02-15T14:25:34;22.90;58.10
48806;DHT22;34625;47.176;27.548;2023-02-15T14:28:22;22.80;57.40
48806;DHT22;34625;47.176;27.548;2023-02-15T14:30:52;22.80;57.80
48806;DHT22;34625;47.176;27.548;2023-02-15T14:35:55;22.80;57.80
48806;DHT22;34625;47.176;27.548;2023-02-15T14:39:03;22.70;57.90
48806;DHT22;34625;47.176;27.548;2023-02-15T14:41:50;22.60;58.20
48806;DHT22;34625;47.176;27.548;2023-02-15T14:45:01;22.50;58.30
48806;DHT22;34625;47.176;27.548;2023-02-15T14:47:38;22.50;58.50
48806;DHT22;34625;47.176;27.548;2023-02-15T15:01:30;22.20;58.90
48806;DHT22;34625;47.176;27.548;2023-02-15T15:04:04;22.20;58.60
48806;DHT22;34625;47.176;27.548;2023-02-15T15:06:36;22.30;58.70
48806;DHT22;34625;47.176;27.548;2023-02-15T15:09:33;22.20;58.60
48806;DHT22;34625;47.176;27.548;2023-02-15T15:12:39;22.10;58.70
48806;DHT22;34625;47.176;27.548;2023-02-15T15:15:05;22.10;59.40
48806;DHT22;34625;47.176;27.548;2023-02-15T15:19:58;22.30;59.30
48806;DHT22;34625;47.176;27.548;2023-02-15T15:22:26;22.30;59.60
48806;DHT22;34625;47.176;27.548;2023-02-15T15:24:53;22.40;58.90
48806;DHT22;34625;47.176;27.548;2023-02-15T15:35:44;23.20;61.90
48806;DHT22;34625;47.176;27.548;2023-02-15T15:46:32;23.40;47.00
48806;DHT22;34625;47.176;27.548;2023-02-15T15:49:06;23.40;43.90
48806;DHT22;34625;47.176;27.548;2023-02-15T15:51:34;23.60;41.80
48806;DHT22;34625;47.176;27.548;2023-02-15T15:54:04;23.60;42.60
48806;DHT22;34625;47.176;27.548;2023-02-15T15:56:33;23.60;42.90
48806;DHT22;34625;47.176;27.548;2023-02-15T15:59:04;23.60;42.30
48806;DHT22;34625;47.176;27.548;2023-02-15T16:01:36;23.60;40.30
48806;DHT22;34625;47.176;27.548;2023-02-15T16:04:04;23.60;39.60
48806;DHT22;34625;47.176;27.548;2023-02-15T16:06:38;23.60;42.60
48806;DHT22;34625;47.176;27.548;2023-02-15T16:11:37;23.60;50.20
48806;DHT22;34625;47.176;27.548;2023-02-15T16:14:14;23.50;51.50
48806;DHT22;34625;47.176;27.548;2023-02-15T16:16:41;23.40;52.10
48806;DHT22;34625;47.176;27.548;2023-02-15T16:19:22;23.40;52.30
48806;DHT22;34625;47.176;27.548;2023-02-15T16:21:49;23.30;52.80
48806;DHT22;34625;47.176;27.548;2023-02-15T16:29:36;23.40;53.60
48806;DHT22;34625;47.176;27.548;2023-02-15T16:34:28;23.30;55.80
48806;DHT22;34625;47.176;27.548;2023-02-15T16:37:17;23.30;56.10
48806;DHT22;34625;47.176;27.548;2023-02-15T16:39:45;23.30;56.50
48806;DHT22;34625;47.176;27.548;2023-02-15T16:42:14;23.10;56.70
48806;DHT22;34625;47.176;27.548;2023-02-15T16:44:40;23.20;56.90
48806;DHT22;34625;47.176;27.548;2023-02-15T16:47:22;23.10;56.50
48806;DHT22;34625;47.176;27.548;2023-02-15T16:49:49;23.20;57.40
48806;DHT22;34625;47.176;27.548;2023-02-15T16:52:22;23.20;57.60
48806;DHT22;34625;47.176;27.548;2023-02-15T16:54:50;23.10;56.40
48806;DHT22;34625;47.176;27.548;2023-02-15T16:57:20;23.40;59.00
48806;DHT22;34625;47.176;27.548;2023-02-15T16:59:49;24.20;58.10
48806;DHT22;34625;47.176;27.548;2023-02-15T17:02:23;24.90;56.50
48806;DHT22;34625;47.176;27.548;2023-02-15T17:07:48;24.90;43.20
48806;DHT22;34625;47.176;27.548;2023-02-15T17:10:32;24.80;44.40
48806;DHT22;34625;47.176;27.548;2023-02-15T17:13:09;24.60;44.80
48806;DHT22;34625;47.176;27.548;2023-02-15T17:15:37;24.70;47.50
48806;DHT22;34625;47.176;27.548;2023-02-15T17:18:22;24.70;52.00
48806;DHT22;34625;47.176;27.548;2023-02-15T17:20:51;24.70;42.20
48806;DHT22;34625;47.176;27.548;2023-02-15T17:25:48;24.40;51.40
48806;DHT22;34625;47.176;27.548;2023-02-15T17:28:23;24.50;51.90
48806;DHT22;34625;47.176;27.548;2023-02-15T17:30:51;24.50;52.50
48806;DHT22;34625;47.176;27.548;2023-02-15T17:36:13;24.10;53.70
48806;DHT22;34625;47.176;27.548;2023-02-15T17:39:02;24.00;54.40
48806;DHT22;34625;47.176;27.548;2023-02-15T17:41:33;23.90;55.10
48806;DHT22;34625;47.176;27.548;2023-02-15T17:44:01;23.80;55.20
48806;DHT22;34625;47.176;27.548;2023-02-15T17:46:33;23.70;55.60
48806;DHT22;34625;47.176;27.548;2023-02-15T17:49:00;23.60;56.00
48806;DHT22;34625;47.176;27.548;2023-02-15T17:51:27;23.50;56.10
48806;DHT22;34625;47.176;27.548;2023-02-15T17:53:53;23.50;56.50
48806;DHT22;34625;47.176;27.548;2023-02-15T17:56:38;23.40;56.60
48806;DHT22;34625;47.176;27.548;2023-02-15T17:59:04;23.30;57.10
48806;DHT22;34625;47.176;27.548;2023-02-15T18:01:33;23.10;57.50
48806;DHT22;34625;47.176;27.548;2023-02-15T18:04:19;23.20;57.90
48806;DHT22;34625;47.176;27.548;2023-02-15T18:07:04;23.00;58.30
48806;DHT22;34625;47.176;27.548;2023-02-15T18:09:48;23.00;58.50
48806;DHT22;34625;47.176;27.548;2023-02-15T18:12:34;22.90;58.70
48806;DHT22;34625;47.176;27.548;2023-02-15T18:15:05;22.80;58.90
48806;DHT22;34625;47.176;27.548;2023-02-15T18:17:38;22.90;58.90
48806;DHT22;34625;47.176;27.548;2023-02-15T18:20:20;22.80;58.80
48806;DHT22;34625;47.176;27.548;2023-02-15T18:22:49;22.90;59.10
48806;DHT22;34625;47.176;27.548;2023-02-15T18:25:19;22.60;59.30
48806;DHT22;34625;47.176;27.548;2023-02-15T18:27:45;22.80;59.10
48806;DHT22;34625;47.176;27.548;2023-02-15T18:30:32;22.80;59.10
48806;DHT22;34625;47.176;27.548;2023-02-15T18:33:02;22.80;59.00
48806;DHT22;34625;47.176;27.548;2023-02-15T18:35:31;22.90;59.40
48806;DHT22;34625;47.176;27.548;2023-02-15T18:37:58;22.80;58.80
48806;DHT22;34625;47.176;27.548;2023-02-15T18:40:26;22.80;59.30
48806;DHT22;34625;47.176;27.548;2023-02-15T18:42:53;22.90;59.60
48806;DHT22;34625;47.176;27.548;2023-02-15T18:45:26;22.80;59.30
48806;DHT22;34625;47.176;27.548;2023-02-15T18:47:57;22.80;58.70
48806;DHT22;34625;47.176;27.548;2023-02-15T18:50:26;22.70;59.30
48806;DHT22;34625;47.176;27.548;2023-02-15T18:52:56;22.60;59.60
48806;DHT22;34625;47.176;27.548;2023-02-15T18:55:24;22.60;59.70
48806;DHT22;34625;47.176;27.548;2023-02-15T18:57:54;22.50;60.40
48806;DHT22;34625;47.176;27.548;2023-02-15T19:00:28;22.50;61.00
48806;DHT22;34625;47.176;27.548;2023-02-15T19:02:54;22.40;60.10
48806;DHT22;34625;47.176;27.548;2023-02-15T19:05:21;22.40;60.90
48806;DHT22;34625;47.176;27.548;2023-02-15T19:07:49;22.30;61.10
48806;DHT22;34625;47.176;27.548;2023-02-15T19:10:20;22.20;60.20
48806;DHT22;34625;47.176;27.548;2023-02-15T19:12:47;22.20;61.20
48806;DHT22;34625;47.176;27.548;2023-02-15T19:15:22;22.10;61.60